sensor_id;sensor_type;location;lat;lon;timestamp;P1;durP1;ratioP1;P2;durP2;ratioP2
71183;SDS011;58887;51.980;4.464;2023-04-01T00:01:05;338.46;;;338.46;;
71183;SDS011;58887;51.980;4.464;2023-04-01T00:03:32;349.34;;;349.34;;
71183;SDS011;58887;51.980;4.464;2023-04-01T00:06:00;344.44;;;344.44;;
71183;SDS011;58887;51.980;4.464;2023-04-01T00:08:26;342.29;;;342.29;;
71183;SDS011;58887;51.980;4.464;2023-04-01T00:10:53;348.50;;;348.50;;
71183;SDS011;58887;51.980;4.464;2023-04-01T00:13:19;411.99;;;411.99;;
71183;SDS011;58887;51.980;4.464;2023-04-01T00:15:45;402.49;;;402.49;;
71183;SDS011;58887;51.980;4.464;2023-04-01T00:18:11;347.66;;;347.66;;
71183;SDS011;58887;51.980;4.464;2023-04-01T00:20:37;341.85;;;341.85;;
71183;SDS011;58887;51.980;4.464;2023-04-01T00:23:02;328.30;;;328.30;;
71183;SDS011;58887;51.980;4.464;2023-04-01T00:25:30;319.09;;;319.09;;
71183;SDS011;58887;51.980;4.464;2023-04-01T00:27:56;322.68;;;322.68;;
71183;SDS011;58887;51.980;4.464;2023-04-01T00:30:21;387.04;;;387.04;;
71183;SDS011;58887;51.980;4.464;2023-04-01T00:32:50;425.99;;;425.99;;
71183;SDS011;58887;51.980;4.464;2023-04-01T00:35:17;400.99;;;400.99;;
71183;SDS011;58887;51.980;4.464;2023-04-01T00:37:43;446.58;;;446.58;;
71183;SDS011;58887;51.980;4.464;2023-04-01T00:40:18;443.48;;;443.48;;
71183;SDS011;58887;51.980;4.464;2023-04-01T00:42:59;390.58;;;390.58;;
71183;SDS011;58887;51.980;4.464;2023-04-01T00:47:58;359.35;;;359.35;;
71183;SDS011;58887;51.980;4.464;2023-04-01T00:50:31;462.30;;;462.30;;
71183;SDS011;58887;51.980;4.464;2023-04-01T00:53:00;443.17;;;443.17;;
71183;SDS011;58887;51.980;4.464;2023-04-01T00:55:28;372.40;;;372.40;;
71183;SDS011;58887;51.980;4.464;2023-04-01T00:58:00;442.29;;;442.29;;
71183;SDS011;58887;51.980;4.464;2023-04-01T01:00:30;387.01;;;387.01;;
71183;SDS011;58887;51.980;4.464;2023-04-01T01:02:56;341.07;;;341.07;;
71183;SDS011;58887;51.980;4.464;2023-04-01T01:05:25;282.30;;;282.30;;
71183;SDS011;58887;51.980;4.464;2023-04-01T01:08:21;267.81;;;267.81;;
71183;SDS011;58887;51.980;4.464;2023-04-01T01:11:12;265.13;;;265.13;;
71183;SDS011;58887;51.980;4.464;2023-04-01T01:13:54;263.68;;;263.68;;
71183;SDS011;58887;51.980;4.464;2023-04-01T01:16:33;259.67;;;259.67;;
71183;SDS011;58887;51.980;4.464;2023-04-01T01:27:24;249.60;;;249.60;;
71183;SDS011;58887;51.980;4.464;2023-04-01T01:30:05;254.92;;;254.92;;
71183;SDS011;58887;51.980;4.464;2023-04-01T01:35:37;258.16;;;258.16;;
71183;SDS011;58887;51.980;4.464;2023-04-01T01:38:13;240.10;;;240.10;;
71183;SDS011;58887;51.980;4.464;2023-04-01T01:40:43;248.60;;;248.60;;
71183;SDS011;58887;51.980;4.464;2023-04-01T01:43:16;243.85;;;243.85;;
71183;SDS011;58887;51.980;4.464;2023-04-01T01:45:49;368.87;;;368.87;;
71183;SDS011;58887;51.980;4.464;2023-04-01T01:48:23;338.60;;;338.60;;
71183;SDS011;58887;51.980;4.464;2023-04-01T01:50:52;556.44;;;556.44;;
71183;SDS011;58887;51.980;4.464;2023-04-01T01:53:18;138.42;;;138.42;;
71183;SDS011;58887;51.980;4.464;2023-04-01T01:55:44;91.06;;;91.06;;
71183;SDS011;58887;51.980;4.464;2023-04-01T02:00:56;117.92;;;117.92;;
71183;SDS011;58887;51.980;4.464;2023-04-01T02:03:27;86.74;;;86.74;;
71183;SDS011;58887;51.980;4.464;2023-04-01T02:05:57;81.56;;;81.56;;
71183;SDS011;58887;51.980;4.464;2023-04-01T02:08:28;97.47;;;97.47;;
71183;SDS011;58887;51.980;4.464;2023-04-01T02:11:07;140.62;;;140.62;;
71183;SDS011;58887;51.980;4.464;2023-04-01T02:13:41;150.78;;;150.78;;
71183;SDS011;58887;51.980;4.464;2023-04-01T02:16:20;139.68;;;139.68;;
71183;SDS011;58887;51.980;4.464;2023-04-01T02:18:51;75.90;;;75.90;;
71183;SDS011;58887;51.980;4.464;2023-04-01T02:21:22;104.38;;;104.38;;
71183;SDS011;58887;51.980;4.464;2023-04-01T02:23:52;139.80;;;139.80;;
71183;SDS011;58887;51.980;4.464;2023-04-01T02:26:21;114.65;;;114.65;;
71183;SDS011;58887;51.980;4.464;2023-04-01T02:28:50;104.73;;;104.73;;
71183;SDS011;58887;51.980;4.464;2023-04-01T02:31:21;113.61;;;113.61;;
71183;SDS011;58887;51.980;4.464;2023-04-01T02:33:48;129.20;;;129.20;;
71183;SDS011;58887;51.980;4.464;2023-04-01T02:36:15;147.77;;;147.77;;
71183;SDS011;58887;51.980;4.464;2023-04-01T02:38:42;286.03;;;286.03;;
71183;SDS011;58887;51.980;4.464;2023-04-01T02:41:10;303.09;;;303.09;;
71183;SDS011;58887;51.980;4.464;2023-04-01T02:43:37;141.67;;;141.67;;
71183;SDS011;58887;51.980;4.464;2023-04-01T02:46:03;134.80;;;134.80;;
71183;SDS011;58887;51.980;4.464;2023-04-01T02:48:28;100.67;;;100.67;;
71183;SDS011;58887;51.980;4.464;2023-04-01T02:50:54;116.83;;;116.83;;
71183;SDS011;58887;51.980;4.464;2023-04-01T02:53:19;87.91;;;87.91;;
71183;SDS011;58887;51.980;4.464;2023-04-01T02:55:45;45.81;;;45.81;;
71183;SDS011;58887;51.980;4.464;2023-04-01T02:58:11;53.77;;;53.77;;
71183;SDS011;58887;51.980;4.464;2023-04-01T03:00:36;80.78;;;80.78;;
71183;SDS011;58887;51.980;4.464;2023-04-01T03:03:02;201.36;;;201.36;;
71183;SDS011;58887;51.980;4.464;2023-04-01T03:05:28;167.13;;;167.13;;
71183;SDS011;58887;51.980;4.464;2023-04-01T03:07:54;41.42;;;41.42;;
71183;SDS011;58887;51.980;4.464;2023-04-01T03:10:20;23.56;;;23.56;;
71183;SDS011;58887;51.980;4.464;2023-04-01T03:12:46;30.56;;;30.56;;
71183;SDS011;58887;51.980;4.464;2023-04-01T03:15:12;12.83;;;12.83;;
71183;SDS011;58887;51.980;4.464;2023-04-01T03:17:40;11.10;;;11.10;;
71183;SDS011;58887;51.980;4.464;2023-04-01T03:20:06;9.43;;;9.43;;
71183;SDS011;58887;51.980;4.464;2023-04-01T03:22:33;11.50;;;11.50;;
71183;SDS011;58887;51.980;4.464;2023-04-01T03:25:00;8.96;;;8.96;;
71183;SDS011;58887;51.980;4.464;2023-04-01T03:27:26;11.59;;;11.59;;
71183;SDS011;58887;51.980;4.464;2023-04-01T03:29:52;12.24;;;12.24;;
71183;SDS011;58887;51.980;4.464;2023-04-01T03:32:17;9.88;;;9.88;;
71183;SDS011;58887;51.980;4.464;2023-04-01T03:34:43;7.67;;;7.66;;
71183;SDS011;58887;51.980;4.464;2023-04-01T03:37:09;8.22;;;8.21;;
71183;SDS011;58887;51.980;4.464;2023-04-01T03:39:34;14.84;;;14.84;;
71183;SDS011;58887;51.980;4.464;2023-04-01T03:42:00;11.17;;;11.17;;
71183;SDS011;58887;51.980;4.464;2023-04-01T03:44:26;15.68;;;15.68;;
71183;SDS011;58887;51.980;4.464;2023-04-01T03:46:51;15.68;;;15.68;;
71183;SDS011;58887;51.980;4.464;2023-04-01T03:49:17;12.70;;;12.70;;
71183;SDS011;58887;51.980;4.464;2023-04-01T03:51:43;8.81;;;8.81;;
71183;SDS011;58887;51.980;4.464;2023-04-01T03:54:10;9.18;;;9.18;;
71183;SDS011;58887;51.980;4.464;2023-04-01T03:56:36;7.86;;;7.85;;
71183;SDS011;58887;51.980;4.464;2023-04-01T03:59:03;7.80;;;7.80;;
71183;SDS011;58887;51.980;4.464;2023-04-01T04:01:31;7.43;;;7.43;;
71183;SDS011;58887;51.980;4.464;2023-04-01T04:03:57;7.14;;;7.10;;
71183;SDS011;58887;51.980;4.464;2023-04-01T04:06:23;7.12;;;6.98;;
71183;SDS011;58887;51.980;4.464;2023-04-01T04:08:49;6.89;;;6.80;;
71183;SDS011;58887;51.980;4.464;2023-04-01T04:11:15;6.84;;;6.69;;
71183;SDS011;58887;51.980;4.464;2023-04-01T04:13:42;7.52;;;7.39;;
71183;SDS011;58887;51.980;4.464;2023-04-01T04:16:08;6.78;;;6.75;;
71183;SDS011;58887;51.980;4.464;2023-04-01T04:18:35;7.43;;;7.41;;
71183;SDS011;58887;51.980;4.464;2023-04-01T04:21:02;8.20;;;8.20;;
71183;SDS011;58887;51.980;4.464;2023-04-01T04:23:28;7.76;;;7.76;;
71183;SDS011;58887;51.980;4.464;2023-04-01T04:26:03;8.81;;;8.81;;
71183;SDS011;58887;51.980;4.464;2023-04-01T04:28:31;10.10;;;10.10;;
71183;SDS011;58887;51.980;4.464;2023-04-01T04:30:57;8.84;;;8.84;;
71183;SDS011;58887;51.980;4.464;2023-04-01T04:33:23;7.16;;;7.16;;
71183;SDS011;58887;51.980;4.464;2023-04-01T04:35:50;7.52;;;7.52;;
71183;SDS011;58887;51.980;4.464;2023-04-01T04:38:16;6.43;;;6.42;;
71183;SDS011;58887;51.980;4.464;2023-04-01T04:40:42;6.33;;;6.31;;
71183;SDS011;58887;51.980;4.464;2023-04-01T04:43:12;6.75;;;6.75;;
71183;SDS011;58887;51.980;4.464;2023-04-01T04:45:41;6.85;;;6.84;;
71183;SDS011;58887;51.980;4.464;2023-04-01T04:48:10;7.17;;;7.16;;
71183;SDS011;58887;51.980;4.464;2023-04-01T04:50:41;7.11;;;7.08;;
71183;SDS011;58887;51.980;4.464;2023-04-01T04:53:13;6.27;;;6.21;;
71183;SDS011;58887;51.980;4.464;2023-04-01T04:55:47;6.46;;;6.46;;
71183;SDS011;58887;51.980;4.464;2023-04-01T04:58:14;6.96;;;6.96;;
71183;SDS011;58887;51.980;4.464;2023-04-01T05:00:40;8.47;;;8.47;;
71183;SDS011;58887;51.980;4.464;2023-04-01T05:03:06;11.42;;;11.42;;
71183;SDS011;58887;51.980;4.464;2023-04-01T05:05:32;9.00;;;9.00;;
71183;SDS011;58887;51.980;4.464;2023-04-01T05:07:57;17.82;;;17.82;;
71183;SDS011;58887;51.980;4.464;2023-04-01T05:10:23;24.53;;;24.53;;
71183;SDS011;58887;51.980;4.464;2023-04-01T05:12:49;13.39;;;13.39;;
71183;SDS011;58887;51.980;4.464;2023-04-01T05:15:14;8.96;;;8.96;;
71183;SDS011;58887;51.980;4.464;2023-04-01T05:17:40;8.60;;;8.60;;
71183;SDS011;58887;51.980;4.464;2023-04-01T05:20:05;9.82;;;9.82;;
71183;SDS011;58887;51.980;4.464;2023-04-01T05:22:34;12.00;;;12.00;;
71183;SDS011;58887;51.980;4.464;2023-04-01T05:25:00;24.27;;;24.27;;
71183;SDS011;58887;51.980;4.464;2023-04-01T05:27:26;13.88;;;13.88;;
71183;SDS011;58887;51.980;4.464;2023-04-01T05:29:51;10.72;;;10.72;;
71183;SDS011;58887;51.980;4.464;2023-04-01T05:32:17;14.37;;;14.37;;
71183;SDS011;58887;51.980;4.464;2023-04-01T05:34:42;18.09;;;18.09;;
71183;SDS011;58887;51.980;4.464;2023-04-01T05:37:08;19.18;;;19.18;;
71183;SDS011;58887;51.980;4.464;2023-04-01T05:39:37;15.79;;;15.79;;
71183;SDS011;58887;51.980;4.464;2023-04-01T05:42:04;7.43;;;7.43;;
71183;SDS011;58887;51.980;4.464;2023-04-01T05:44:31;8.39;;;8.39;;
71183;SDS011;58887;51.980;4.464;2023-04-01T05:46:57;10.76;;;10.76;;
71183;SDS011;58887;51.980;4.464;2023-04-01T05:49:22;11.63;;;11.63;;
71183;SDS011;58887;51.980;4.464;2023-04-01T05:51:48;15.63;;;15.63;;
71183;SDS011;58887;51.980;4.464;2023-04-01T05:54:13;17.98;;;17.98;;
71183;SDS011;58887;51.980;4.464;2023-04-01T05:56:39;18.51;;;18.51;;
71183;SDS011;58887;51.980;4.464;2023-04-01T05:59:04;15.26;;;15.26;;
71183;SDS011;58887;51.980;4.464;2023-04-01T06:01:30;15.80;;;15.80;;
71183;SDS011;58887;51.980;4.464;2023-04-01T06:03:57;8.58;;;8.58;;
71183;SDS011;58887;51.980;4.464;2023-04-01T06:06:26;8.67;;;8.67;;
71183;SDS011;58887;51.980;4.464;2023-04-01T06:08:55;12.15;;;12.15;;
71183;SDS011;58887;51.980;4.464;2023-04-01T06:11:26;33.19;;;33.19;;
71183;SDS011;58887;51.980;4.464;2023-04-01T06:37:19;80.96;;;80.96;;
71183;SDS011;58887;51.980;4.464;2023-04-01T06:40:19;101.67;;;101.67;;
71183;SDS011;58887;51.980;4.464;2023-04-01T06:43:05;78.01;;;78.01;;
71183;SDS011;58887;51.980;4.464;2023-04-01T06:45:45;89.72;;;89.72;;
71183;SDS011;58887;51.980;4.464;2023-04-01T06:48:29;76.46;;;76.46;;
71183;SDS011;58887;51.980;4.464;2023-04-01T06:53:42;24.01;;;24.01;;
71183;SDS011;58887;51.980;4.464;2023-04-01T06:56:14;14.59;;;14.59;;
71183;SDS011;58887;51.980;4.464;2023-04-01T06:58:46;28.87;;;28.87;;
71183;SDS011;58887;51.980;4.464;2023-04-01T07:01:22;17.38;;;17.38;;
71183;SDS011;58887;51.980;4.464;2023-04-01T07:06:36;8.51;;;8.51;;
71183;SDS011;58887;51.980;4.464;2023-04-01T07:09:24;5.52;;;5.52;;
71183;SDS011;58887;51.980;4.464;2023-04-01T07:11:56;4.83;;;4.83;;
71183;SDS011;58887;51.980;4.464;2023-04-01T07:14:35;4.59;;;4.59;;
71183;SDS011;58887;51.980;4.464;2023-04-01T07:17:09;4.40;;;4.40;;
71183;SDS011;58887;51.980;4.464;2023-04-01T07:19:45;4.56;;;4.56;;
71183;SDS011;58887;51.980;4.464;2023-04-01T07:22:26;4.68;;;4.68;;
71183;SDS011;58887;51.980;4.464;2023-04-01T07:25:02;4.20;;;4.20;;
71183;SDS011;58887;51.980;4.464;2023-04-01T07:27:37;3.80;;;3.80;;
71183;SDS011;58887;51.980;4.464;2023-04-01T07:30:06;4.39;;;4.39;;
71183;SDS011;58887;51.980;4.464;2023-04-01T07:32:44;3.52;;;3.52;;
71183;SDS011;58887;51.980;4.464;2023-04-01T07:40:35;2.80;;;2.80;;
71183;SDS011;58887;51.980;4.464;2023-04-01T07:43:33;2.95;;;2.95;;
71183;SDS011;58887;51.980;4.464;2023-04-01T07:48:58;3.51;;;3.51;;
71183;SDS011;58887;51.980;4.464;2023-04-01T07:54:28;3.83;;;3.83;;
71183;SDS011;58887;51.980;4.464;2023-04-01T07:57:17;3.72;;;3.72;;
71183;SDS011;58887;51.980;4.464;2023-04-01T08:02:30;4.22;;;4.22;;
71183;SDS011;58887;51.980;4.464;2023-04-01T08:05:27;4.07;;;4.07;;
71183;SDS011;58887;51.980;4.464;2023-04-01T08:10:49;4.81;;;4.81;;
71183;SDS011;58887;51.980;4.464;2023-04-01T08:16:20;5.47;;;5.46;;
71183;SDS011;58887;51.980;4.464;2023-04-01T08:19:21;5.56;;;5.54;;
71183;SDS011;58887;51.980;4.464;2023-04-01T08:22:29;5.76;;;5.71;;
71183;SDS011;58887;51.980;4.464;2023-04-01T08:25:04;9.65;;;9.63;;
71183;SDS011;58887;51.980;4.464;2023-04-01T08:27:35;7.22;;;7.22;;
71183;SDS011;58887;51.980;4.464;2023-04-01T08:33:05;5.63;;;5.60;;
71183;SDS011;58887;51.980;4.464;2023-04-01T08:35:50;5.65;;;5.57;;
71183;SDS011;58887;51.980;4.464;2023-04-01T08:40:55;7.22;;;7.22;;
71183;SDS011;58887;51.980;4.464;2023-04-01T08:46:57;6.17;;;6.17;;
71183;SDS011;58887;51.980;4.464;2023-04-01T08:52:35;5.57;;;5.51;;
71183;SDS011;58887;51.980;4.464;2023-04-01T08:55:04;6.05;;;6.04;;
71183;SDS011;58887;51.980;4.464;2023-04-01T09:03:16;5.87;;;5.87;;
71183;SDS011;58887;51.980;4.464;2023-04-01T09:22:31;5.33;;;5.33;;
71183;SDS011;58887;51.980;4.464;2023-04-01T09:27:57;5.70;;;5.70;;
71183;SDS011;58887;51.980;4.464;2023-04-01T09:31:15;5.91;;;5.91;;
71183;SDS011;58887;51.980;4.464;2023-04-01T09:36:11;6.42;;;6.41;;
71183;SDS011;58887;51.980;4.464;2023-04-01T09:38:57;7.76;;;7.71;;
71183;SDS011;58887;51.980;4.464;2023-04-01T09:42:15;12.90;;;12.90;;
71183;SDS011;58887;51.980;4.464;2023-04-01T09:44:35;8.34;;;8.34;;
71183;SDS011;58887;51.980;4.464;2023-04-01T10:20:12;16.92;;;16.92;;
71183;SDS011;58887;51.980;4.464;2023-04-01T10:23:13;19.82;;;19.82;;
71183;SDS011;58887;51.980;4.464;2023-04-01T10:26:09;8.54;;;8.54;;
71183;SDS011;58887;51.980;4.464;2023-04-01T10:50:54;44.56;;;44.56;;
71183;SDS011;58887;51.980;4.464;2023-04-01T10:56:46;18.16;;;18.16;;
71183;SDS011;58887;51.980;4.464;2023-04-01T11:05:34;31.83;;;31.83;;
71183;SDS011;58887;51.980;4.464;2023-04-01T11:39:10;14.30;;;14.30;;
71183;SDS011;58887;51.980;4.464;2023-04-01T12:04:32;33.94;;;33.94;;
71183;SDS011;58887;51.980;4.464;2023-04-01T12:10:20;29.40;;;29.40;;
71183;SDS011;58887;51.980;4.464;2023-04-01T12:12:59;21.37;;;21.37;;
71183;SDS011;58887;51.980;4.464;2023-04-01T12:15:50;24.03;;;24.03;;
71183;SDS011;58887;51.980;4.464;2023-04-01T12:21:27;20.46;;;20.46;;
71183;SDS011;58887;51.980;4.464;2023-04-01T12:24:32;33.04;;;33.04;;
71183;SDS011;58887;51.980;4.464;2023-04-01T12:37:50;39.34;;;39.34;;
71183;SDS011;58887;51.980;4.464;2023-04-01T12:52:32;6.42;;;6.42;;
71183;SDS011;58887;51.980;4.464;2023-04-01T13:01:09;6.15;;;6.15;;
71183;SDS011;58887;51.980;4.464;2023-04-01T13:09:23;6.77;;;6.77;;
71183;SDS011;58887;51.980;4.464;2023-04-01T13:20:32;18.81;;;18.81;;
71183;SDS011;58887;51.980;4.464;2023-04-01T13:31:47;6.90;;;6.90;;
71183;SDS011;58887;51.980;4.464;2023-04-01T13:40:03;16.61;;;16.61;;
71183;SDS011;58887;51.980;4.464;2023-04-01T14:03:13;35.83;;;35.83;;
71183;SDS011;58887;51.980;4.464;2023-04-01T14:08:55;21.36;;;21.36;;
71183;SDS011;58887;51.980;4.464;2023-04-01T14:22:34;3.38;;;3.38;;
71183;SDS011;58887;51.980;4.464;2023-04-01T14:25:21;8.09;;;8.09;;
71183;SDS011;58887;51.980;4.464;2023-04-01T14:48:26;10.69;;;10.69;;
71183;SDS011;58887;51.980;4.464;2023-04-01T14:51:20;21.54;;;21.54;;
71183;SDS011;58887;51.980;4.464;2023-04-01T14:53:54;3.20;;;3.20;;
71183;SDS011;58887;51.980;4.464;2023-04-01T14:56:49;3.52;;;3.52;;
71183;SDS011;58887;51.980;4.464;2023-04-01T14:59:27;4.02;;;4.02;;
71183;SDS011;58887;51.980;4.464;2023-04-01T15:07:47;2.86;;;2.86;;
71183;SDS011;58887;51.980;4.464;2023-04-01T15:13:28;3.17;;;3.10;;
71183;SDS011;58887;51.980;4.464;2023-04-01T15:18:47;3.40;;;3.27;;
71183;SDS011;58887;51.980;4.464;2023-04-01T15:21:41;4.82;;;4.79;;
71183;SDS011;58887;51.980;4.464;2023-04-01T15:24:24;6.85;;;6.85;;
71183;SDS011;58887;51.980;4.464;2023-04-01T15:30:16;5.52;;;5.52;;
71183;SDS011;58887;51.980;4.464;2023-04-01T15:38:36;5.07;;;5.07;;
71183;SDS011;58887;51.980;4.464;2023-04-01T15:43:44;5.38;;;5.38;;
71183;SDS011;58887;51.980;4.464;2023-04-01T15:49:05;4.02;;;4.02;;
71183;SDS011;58887;51.980;4.464;2023-04-01T16:00:34;6.26;;;6.26;;
71183;SDS011;58887;51.980;4.464;2023-04-01T16:14:04;3.91;;;3.91;;
71183;SDS011;58887;51.980;4.464;2023-04-01T16:16:48;4.04;;;4.04;;
71183;SDS011;58887;51.980;4.464;2023-04-01T16:22:12;3.59;;;3.59;;
71183;SDS011;58887;51.980;4.464;2023-04-01T16:24:51;3.89;;;3.89;;
71183;SDS011;58887;51.980;4.464;2023-04-01T16:30:42;4.79;;;4.79;;
71183;SDS011;58887;51.980;4.464;2023-04-01T16:36:19;4.17;;;4.17;;
71183;SDS011;58887;51.980;4.464;2023-04-01T16:45:15;3.96;;;3.96;;
71183;SDS011;58887;51.980;4.464;2023-04-01T16:48:10;4.25;;;4.25;;
71183;SDS011;58887;51.980;4.464;2023-04-01T16:50:48;4.17;;;4.17;;
71183;SDS011;58887;51.980;4.464;2023-04-01T16:58:36;9.24;;;9.24;;
71183;SDS011;58887;51.980;4.464;2023-04-01T17:01:16;13.39;;;13.39;;
71183;SDS011;58887;51.980;4.464;2023-04-01T17:03:54;10.87;;;10.87;;
71183;SDS011;58887;51.980;4.464;2023-04-01T17:30:43;15.39;;;15.39;;
71183;SDS011;58887;51.980;4.464;2023-04-01T17:38:40;37.85;;;37.85;;
71183;SDS011;58887;51.980;4.464;2023-04-01T17:47:23;61.23;;;61.23;;
71183;SDS011;58887;51.980;4.464;2023-04-01T17:49:55;48.41;;;48.41;;
71183;SDS011;58887;51.980;4.464;2023-04-01T17:52:39;49.31;;;49.31;;
71183;SDS011;58887;51.980;4.464;2023-04-01T17:58:35;40.80;;;40.80;;
71183;SDS011;58887;51.980;4.464;2023-04-01T18:07:03;48.28;;;48.28;;
71183;SDS011;58887;51.980;4.464;2023-04-01T18:10:08;33.24;;;33.24;;
71183;SDS011;58887;51.980;4.464;2023-04-01T18:23:58;31.33;;;31.33;;
71183;SDS011;58887;51.980;4.464;2023-04-01T18:26:39;36.65;;;36.65;;
71183;SDS011;58887;51.980;4.464;2023-04-01T18:32:14;22.80;;;22.80;;
71183;SDS011;58887;51.980;4.464;2023-04-01T18:34:53;23.06;;;23.06;;
71183;SDS011;58887;51.980;4.464;2023-04-01T18:37:31;11.76;;;11.76;;
71183;SDS011;58887;51.980;4.464;2023-04-01T18:40:10;12.41;;;12.41;;
71183;SDS011;58887;51.980;4.464;2023-04-01T18:45:49;17.27;;;17.27;;
71183;SDS011;58887;51.980;4.464;2023-04-01T18:48:42;19.15;;;19.15;;
71183;SDS011;58887;51.980;4.464;2023-04-01T18:51:21;20.09;;;20.09;;
71183;SDS011;58887;51.980;4.464;2023-04-01T18:54:02;13.33;;;13.33;;
71183;SDS011;58887;51.980;4.464;2023-04-01T18:56:43;12.28;;;12.28;;
71183;SDS011;58887;51.980;4.464;2023-04-01T18:59:22;6.11;;;6.11;;
71183;SDS011;58887;51.980;4.464;2023-04-01T19:02:00;4.94;;;4.94;;
71183;SDS011;58887;51.980;4.464;2023-04-01T19:04:47;5.06;;;5.06;;
71183;SDS011;58887;51.980;4.464;2023-04-01T19:10:13;4.04;;;4.04;;
71183;SDS011;58887;51.980;4.464;2023-04-01T19:21:29;3.76;;;3.76;;
71183;SDS011;58887;51.980;4.464;2023-04-01T19:24:09;3.56;;;3.56;;
71183;SDS011;58887;51.980;4.464;2023-04-01T19:26:43;3.55;;;3.55;;
71183;SDS011;58887;51.980;4.464;2023-04-01T19:29:25;4.02;;;4.02;;
71183;SDS011;58887;51.980;4.464;2023-04-01T19:56:47;4.59;;;4.59;;
71183;SDS011;58887;51.980;4.464;2023-04-01T19:59:29;3.93;;;3.93;;
71183;SDS011;58887;51.980;4.464;2023-04-01T20:04:34;3.86;;;3.86;;
71183;SDS011;58887;51.980;4.464;2023-04-01T20:15:23;6.76;;;6.76;;
71183;SDS011;58887;51.980;4.464;2023-04-01T20:17:54;6.60;;;6.60;;
71183;SDS011;58887;51.980;4.464;2023-04-01T20:20:26;7.08;;;7.08;;
71183;SDS011;58887;51.980;4.464;2023-04-01T20:23:01;9.22;;;9.22;;
71183;SDS011;58887;51.980;4.464;2023-04-01T20:25:40;8.69;;;8.69;;
71183;SDS011;58887;51.980;4.464;2023-04-01T20:36:28;17.79;;;17.79;;
71183;SDS011;58887;51.980;4.464;2023-04-01T20:44:55;32.52;;;32.52;;
71183;SDS011;58887;51.980;4.464;2023-04-01T20:48:02;28.39;;;28.39;;
71183;SDS011;58887;51.980;4.464;2023-04-01T20:51:06;33.19;;;33.19;;
71183;SDS011;58887;51.980;4.464;2023-04-01T20:53:36;41.83;;;41.83;;
71183;SDS011;58887;51.980;4.464;2023-04-01T21:07:04;109.68;;;109.68;;
71183;SDS011;58887;51.980;4.464;2023-04-01T21:10:08;147.56;;;147.56;;
71183;SDS011;58887;51.980;4.464;2023-04-01T21:12:57;141.48;;;141.48;;
71183;SDS011;58887;51.980;4.464;2023-04-01T21:18:42;156.50;;;156.50;;
71183;SDS011;58887;51.980;4.464;2023-04-01T21:21:57;134.63;;;134.63;;
71183;SDS011;58887;51.980;4.464;2023-04-01T21:36:58;344.03;;;344.03;;
71183;SDS011;58887;51.980;4.464;2023-04-01T21:39:34;295.58;;;295.58;;
71183;SDS011;58887;51.980;4.464;2023-04-01T21:42:32;284.31;;;284.31;;
71183;SDS011;58887;51.980;4.464;2023-04-01T21:45:19;270.95;;;270.95;;
71183;SDS011;58887;51.980;4.464;2023-04-01T21:50:43;253.71;;;253.71;;
71183;SDS011;58887;51.980;4.464;2023-04-01T21:53:44;268.22;;;268.22;;
71183;SDS011;58887;51.980;4.464;2023-04-01T21:56:38;263.90;;;263.90;;
71183;SDS011;58887;51.980;4.464;2023-04-01T22:02:36;215.28;;;215.28;;
71183;SDS011;58887;51.980;4.464;2023-04-01T22:05:21;188.11;;;188.11;;
71183;SDS011;58887;51.980;4.464;2023-04-01T22:11:14;133.81;;;133.81;;
71183;SDS011;58887;51.980;4.464;2023-04-01T22:13:54;89.83;;;89.83;;
71183;SDS011;58887;51.980;4.464;2023-04-01T22:16:48;85.75;;;85.75;;
71183;SDS011;58887;51.980;4.464;2023-04-01T22:22:30;61.46;;;61.46;;
71183;SDS011;58887;51.980;4.464;2023-04-01T22:25:02;87.31;;;87.31;;
71183;SDS011;58887;51.980;4.464;2023-04-01T22:27:46;90.28;;;90.28;;
71183;SDS011;58887;51.980;4.464;2023-04-01T22:30:38;81.30;;;81.30;;
71183;SDS011;58887;51.980;4.464;2023-04-01T22:41:07;88.54;;;88.54;;
71183;SDS011;58887;51.980;4.464;2023-04-01T22:48:49;124.87;;;124.87;;
71183;SDS011;58887;51.980;4.464;2023-04-01T22:54:27;103.25;;;103.25;;
71183;SDS011;58887;51.980;4.464;2023-04-01T22:57:12;78.05;;;78.05;;
71183;SDS011;58887;51.980;4.464;2023-04-01T22:59:52;83.93;;;83.93;;
71183;SDS011;58887;51.980;4.464;2023-04-01T23:02:37;100.05;;;100.05;;
71183;SDS011;58887;51.980;4.464;2023-04-01T23:05:09;97.92;;;97.92;;
71183;SDS011;58887;51.980;4.464;2023-04-01T23:08:00;120.06;;;120.06;;
71183;SDS011;58887;51.980;4.464;2023-04-01T23:10:56;111.52;;;111.52;;
71183;SDS011;58887;51.980;4.464;2023-04-01T23:14:02;108.30;;;108.30;;
71183;SDS011;58887;51.980;4.464;2023-04-01T23:16:36;68.17;;;68.17;;
71183;SDS011;58887;51.980;4.464;2023-04-01T23:19:14;55.56;;;55.56;;
71183;SDS011;58887;51.980;4.464;2023-04-01T23:21:49;38.83;;;38.83;;
71183;SDS011;58887;51.980;4.464;2023-04-01T23:24:28;29.19;;;29.19;;
71183;SDS011;58887;51.980;4.464;2023-04-01T23:27:08;34.09;;;34.09;;
71183;SDS011;58887;51.980;4.464;2023-04-01T23:29:47;40.16;;;40.16;;
71183;SDS011;58887;51.980;4.464;2023-04-01T23:32:16;61.52;;;61.52;;
71183;SDS011;58887;51.980;4.464;2023-04-01T23:35:02;54.67;;;54.67;;
71183;SDS011;58887;51.980;4.464;2023-04-01T23:37:30;55.81;;;55.81;;
71183;SDS011;58887;51.980;4.464;2023-04-01T23:39:56;48.93;;;48.93;;
71183;SDS011;58887;51.980;4.464;2023-04-01T23:44:55;103.66;;;103.66;;
71183;SDS011;58887;51.980;4.464;2023-04-01T23:47:30;66.93;;;66.93;;
71183;SDS011;58887;51.980;4.464;2023-04-01T23:50:02;44.57;;;44.57;;
71183;SDS011;58887;51.980;4.464;2023-04-01T23:52:47;40.17;;;40.17;;
71183;SDS011;58887;51.980;4.464;2023-04-01T23:55:19;60.35;;;60.35;;
71183;SDS011;58887;51.980;4.464;2023-04-01T23:58:25;37.71;;;37.71;;
